sensor_id;sensor_type;location;lat;lon;timestamp;P1;P2;P0
49708;PMS5003;35601;55.902;13.606;2023-04-01T00:01:14;11;9;
49708;PMS5003;35601;55.902;13.606;2023-04-01T00:03:40;12;10;
49708;PMS5003;35601;55.902;13.606;2023-04-01T00:06:07;11;11;
49708;PMS5003;35601;55.902;13.606;2023-04-01T00:08:31;12;10;
49708;PMS5003;35601;55.902;13.606;2023-04-01T00:10:56;10;8;
49708;PMS5003;35601;55.902;13.606;2023-04-01T00:13:23;10;8;
49708;PMS5003;35601;55.902;13.606;2023-04-01T00:15:48;7;7;
49708;PMS5003;35601;55.902;13.606;2023-04-01T00:18:12;8;8;
49708;PMS5003;35601;55.902;13.606;2023-04-01T00:20:37;10;7;
49708;PMS5003;35601;55.902;13.606;2023-04-01T00:23:02;7;7;
49708;PMS5003;35601;55.902;13.606;2023-04-01T00:25:28;10;10;
49708;PMS5003;35601;55.902;13.606;2023-04-01T00:27:53;11;7;
49708;PMS5003;35601;55.902;13.606;2023-04-01T00:30:19;8;8;
49708;PMS5003;35601;55.902;13.606;2023-04-01T00:32:45;7;7;
49708;PMS5003;35601;55.902;13.606;2023-04-01T00:35:09;9;7;
49708;PMS5003;35601;55.902;13.606;2023-04-01T00:37:35;13;13;
49708;PMS5003;35601;55.902;13.606;2023-04-01T00:39:59;10;10;
49708;PMS5003;35601;55.902;13.606;2023-04-01T00:42:26;11;9;
49708;PMS5003;35601;55.902;13.606;2023-04-01T00:44:51;7;7;
49708;PMS5003;35601;55.902;13.606;2023-04-01T00:47:15;10;10;
49708;PMS5003;35601;55.902;13.606;2023-04-01T00:49:42;11;7;
49708;PMS5003;35601;55.902;13.606;2023-04-01T00:52:08;11;10;
49708;PMS5003;35601;55.902;13.606;2023-04-01T00:54:32;13;10;
49708;PMS5003;35601;55.902;13.606;2023-04-01T00:56:58;14;11;
49708;PMS5003;35601;55.902;13.606;2023-04-01T00:59:23;11;11;
49708;PMS5003;35601;55.902;13.606;2023-04-01T01:01:48;9;9;
49708;PMS5003;35601;55.902;13.606;2023-04-01T01:04:21;11;11;
49708;PMS5003;35601;55.902;13.606;2023-04-01T01:06:42;9;9;
49708;PMS5003;35601;55.902;13.606;2023-04-01T01:09:09;12;9;
49708;PMS5003;35601;55.902;13.606;2023-04-01T01:11:32;10;9;
49708;PMS5003;35601;55.902;13.606;2023-04-01T01:13:56;10;9;
49708;PMS5003;35601;55.902;13.606;2023-04-01T01:16:21;12;11;
49708;PMS5003;35601;55.902;13.606;2023-04-01T01:18:46;10;10;
49708;PMS5003;35601;55.902;13.606;2023-04-01T01:21:18;12;11;
49708;PMS5003;35601;55.902;13.606;2023-04-01T01:28:32;12;11;
49708;PMS5003;35601;55.902;13.606;2023-04-01T01:30:52;16;12;
49708;PMS5003;35601;55.902;13.606;2023-04-01T01:33:20;14;13;
49708;PMS5003;35601;55.902;13.606;2023-04-01T01:35:43;20;14;
49708;PMS5003;35601;55.902;13.606;2023-04-01T01:38:08;13;12;
49708;PMS5003;35601;55.902;13.606;2023-04-01T01:40:33;16;13;
49708;PMS5003;35601;55.902;13.606;2023-04-01T01:42:59;11;11;
49708;PMS5003;35601;55.902;13.606;2023-04-01T01:45:24;16;12;
49708;PMS5003;35601;55.902;13.606;2023-04-01T01:47:49;13;12;
49708;PMS5003;35601;55.902;13.606;2023-04-01T01:50:14;21;13;
49708;PMS5003;35601;55.902;13.606;2023-04-01T01:52:40;12;11;
49708;PMS5003;35601;55.902;13.606;2023-04-01T01:57:33;11;11;
49708;PMS5003;35601;55.902;13.606;2023-04-01T01:59:58;18;13;
49708;PMS5003;35601;55.902;13.606;2023-04-01T02:02:22;16;13;
49708;PMS5003;35601;55.902;13.606;2023-04-01T02:04:47;12;11;
49708;PMS5003;35601;55.902;13.606;2023-04-01T02:07:13;14;11;
49708;PMS5003;35601;55.902;13.606;2023-04-01T02:09:38;13;12;
49708;PMS5003;35601;55.902;13.606;2023-04-01T02:12:04;18;10;
49708;PMS5003;35601;55.902;13.606;2023-04-01T02:14:29;16;12;
49708;PMS5003;35601;55.902;13.606;2023-04-01T02:16:55;14;12;
49708;PMS5003;35601;55.902;13.606;2023-04-01T02:19:19;11;11;
49708;PMS5003;35601;55.902;13.606;2023-04-01T02:21:44;13;13;
49708;PMS5003;35601;55.902;13.606;2023-04-01T02:24:11;10;10;
49708;PMS5003;35601;55.902;13.606;2023-04-01T02:26:35;13;11;
49708;PMS5003;35601;55.902;13.606;2023-04-01T02:29:01;14;13;
49708;PMS5003;35601;55.902;13.606;2023-04-01T02:31:26;13;12;
49708;PMS5003;35601;55.902;13.606;2023-04-01T02:33:51;12;10;
49708;PMS5003;35601;55.902;13.606;2023-04-01T02:36:17;11;11;
49708;PMS5003;35601;55.902;13.606;2023-04-01T02:38:43;20;13;
49708;PMS5003;35601;55.902;13.606;2023-04-01T02:41:07;14;11;
49708;PMS5003;35601;55.902;13.606;2023-04-01T02:43:32;13;12;
49708;PMS5003;35601;55.902;13.606;2023-04-01T02:45:58;12;11;
49708;PMS5003;35601;55.902;13.606;2023-04-01T02:48:23;13;10;
49708;PMS5003;35601;55.902;13.606;2023-04-01T02:50:49;16;14;
49708;PMS5003;35601;55.902;13.606;2023-04-01T02:53:15;13;12;
49708;PMS5003;35601;55.902;13.606;2023-04-01T02:55:40;11;8;
49708;PMS5003;35601;55.902;13.606;2023-04-01T02:58:05;17;17;
49708;PMS5003;35601;55.902;13.606;2023-04-01T03:00:31;12;10;
49708;PMS5003;35601;55.902;13.606;2023-04-01T03:02:56;12;12;
49708;PMS5003;35601;55.902;13.606;2023-04-01T03:05:23;20;17;
49708;PMS5003;35601;55.902;13.606;2023-04-01T03:07:47;12;12;
49708;PMS5003;35601;55.902;13.606;2023-04-01T03:10:12;8;8;
49708;PMS5003;35601;55.902;13.606;2023-04-01T03:12:37;11;11;
49708;PMS5003;35601;55.902;13.606;2023-04-01T03:15:03;13;11;
49708;PMS5003;35601;55.902;13.606;2023-04-01T03:17:28;12;11;
49708;PMS5003;35601;55.902;13.606;2023-04-01T03:19:53;17;14;
49708;PMS5003;35601;55.902;13.606;2023-04-01T03:22:18;16;12;
49708;PMS5003;35601;55.902;13.606;2023-04-01T03:24:43;14;11;
49708;PMS5003;35601;55.902;13.606;2023-04-01T03:27:09;14;13;
49708;PMS5003;35601;55.902;13.606;2023-04-01T03:29:34;11;11;
49708;PMS5003;35601;55.902;13.606;2023-04-01T03:31:59;14;12;
49708;PMS5003;35601;55.902;13.606;2023-04-01T03:34:24;14;12;
49708;PMS5003;35601;55.902;13.606;2023-04-01T03:36:50;12;11;
49708;PMS5003;35601;55.902;13.606;2023-04-01T03:39:15;11;11;
49708;PMS5003;35601;55.902;13.606;2023-04-01T03:41:40;14;12;
49708;PMS5003;35601;55.902;13.606;2023-04-01T03:44:05;13;13;
49708;PMS5003;35601;55.902;13.606;2023-04-01T03:46:31;12;12;
49708;PMS5003;35601;55.902;13.606;2023-04-01T03:48:56;12;11;
49708;PMS5003;35601;55.902;13.606;2023-04-01T03:51:21;12;10;
49708;PMS5003;35601;55.902;13.606;2023-04-01T03:53:47;20;15;
49708;PMS5003;35601;55.902;13.606;2023-04-01T03:56:12;12;10;
49708;PMS5003;35601;55.902;13.606;2023-04-01T03:58:37;15;14;
49708;PMS5003;35601;55.902;13.606;2023-04-01T04:01:03;11;11;
49708;PMS5003;35601;55.902;13.606;2023-04-01T04:03:28;8;7;
49708;PMS5003;35601;55.902;13.606;2023-04-01T04:05:53;15;13;
49708;PMS5003;35601;55.902;13.606;2023-04-01T04:08:18;11;10;
49708;PMS5003;35601;55.902;13.606;2023-04-01T04:10:44;11;11;
49708;PMS5003;35601;55.902;13.606;2023-04-01T04:13:10;14;14;
49708;PMS5003;35601;55.902;13.606;2023-04-01T04:15:35;14;13;
49708;PMS5003;35601;55.902;13.606;2023-04-01T04:18:00;12;12;
49708;PMS5003;35601;55.902;13.606;2023-04-01T04:20:25;14;14;
49708;PMS5003;35601;55.902;13.606;2023-04-01T04:22:50;12;10;
49708;PMS5003;35601;55.902;13.606;2023-04-01T04:25:16;12;11;
49708;PMS5003;35601;55.902;13.606;2023-04-01T04:27:41;9;9;
49708;PMS5003;35601;55.902;13.606;2023-04-01T04:30:07;13;11;
49708;PMS5003;35601;55.902;13.606;2023-04-01T04:32:31;13;13;
49708;PMS5003;35601;55.902;13.606;2023-04-01T04:34:57;12;12;
49708;PMS5003;35601;55.902;13.606;2023-04-01T04:37:22;14;13;
49708;PMS5003;35601;55.902;13.606;2023-04-01T04:39:47;10;10;
49708;PMS5003;35601;55.902;13.606;2023-04-01T04:42:13;10;10;
49708;PMS5003;35601;55.902;13.606;2023-04-01T04:44:38;12;8;
49708;PMS5003;35601;55.902;13.606;2023-04-01T04:47:04;9;9;
49708;PMS5003;35601;55.902;13.606;2023-04-01T04:49:29;7;7;
49708;PMS5003;35601;55.902;13.606;2023-04-01T04:51:54;9;7;
49708;PMS5003;35601;55.902;13.606;2023-04-01T04:54:20;11;7;
49708;PMS5003;35601;55.902;13.606;2023-04-01T04:56:45;9;9;
49708;PMS5003;35601;55.902;13.606;2023-04-01T04:59:10;6;6;
49708;PMS5003;35601;55.902;13.606;2023-04-01T05:01:36;6;6;
49708;PMS5003;35601;55.902;13.606;2023-04-01T05:04:01;10;7;
49708;PMS5003;35601;55.902;13.606;2023-04-01T05:06:27;7;5;
49708;PMS5003;35601;55.902;13.606;2023-04-01T05:08:52;9;6;
49708;PMS5003;35601;55.902;13.606;2023-04-01T05:11:18;7;5;
49708;PMS5003;35601;55.902;13.606;2023-04-01T05:13:43;9;7;
49708;PMS5003;35601;55.902;13.606;2023-04-01T05:16:08;10;6;
49708;PMS5003;35601;55.902;13.606;2023-04-01T05:18:35;6;6;
49708;PMS5003;35601;55.902;13.606;2023-04-01T05:20:59;7;7;
49708;PMS5003;35601;55.902;13.606;2023-04-01T05:23:26;7;6;
49708;PMS5003;35601;55.902;13.606;2023-04-01T05:25:50;7;5;
49708;PMS5003;35601;55.902;13.606;2023-04-01T05:28:15;7;5;
49708;PMS5003;35601;55.902;13.606;2023-04-01T05:30:41;6;5;
49708;PMS5003;35601;55.902;13.606;2023-04-01T05:33:06;4;4;
49708;PMS5003;35601;55.902;13.606;2023-04-01T05:35:33;6;5;
49708;PMS5003;35601;55.902;13.606;2023-04-01T05:37:58;7;7;
49708;PMS5003;35601;55.902;13.606;2023-04-01T05:40:23;7;5;
49708;PMS5003;35601;55.902;13.606;2023-04-01T05:42:47;4;3;
49708;PMS5003;35601;55.902;13.606;2023-04-01T05:45:14;5;5;
49708;PMS5003;35601;55.902;13.606;2023-04-01T05:47:38;5;3;
49708;PMS5003;35601;55.902;13.606;2023-04-01T05:50:04;3;3;
49708;PMS5003;35601;55.902;13.606;2023-04-01T05:52:29;6;4;
49708;PMS5003;35601;55.902;13.606;2023-04-01T05:54:56;3;3;
49708;PMS5003;35601;55.902;13.606;2023-04-01T05:57:21;7;6;
49708;PMS5003;35601;55.902;13.606;2023-04-01T05:59:45;6;5;
49708;PMS5003;35601;55.902;13.606;2023-04-01T06:02:10;6;4;
49708;PMS5003;35601;55.902;13.606;2023-04-01T06:04:38;5;5;
49708;PMS5003;35601;55.902;13.606;2023-04-01T06:07:05;6;6;
49708;PMS5003;35601;55.902;13.606;2023-04-01T06:09:27;6;6;
49708;PMS5003;35601;55.902;13.606;2023-04-01T06:11:58;4;4;
49708;PMS5003;35601;55.902;13.606;2023-04-01T06:14:20;4;4;
49708;PMS5003;35601;55.902;13.606;2023-04-01T06:16:46;4;4;
49708;PMS5003;35601;55.902;13.606;2023-04-01T06:19:12;5;3;
49708;PMS5003;35601;55.902;13.606;2023-04-01T06:21:37;3;3;
49708;PMS5003;35601;55.902;13.606;2023-04-01T06:24:01;5;3;
49708;PMS5003;35601;55.902;13.606;2023-04-01T06:26:25;4;4;
49708;PMS5003;35601;55.902;13.606;2023-04-01T06:28:56;4;2;
49708;PMS5003;35601;55.902;13.606;2023-04-01T06:31:22;3;3;
49708;PMS5003;35601;55.902;13.606;2023-04-01T06:33:46;6;3;
49708;PMS5003;35601;55.902;13.606;2023-04-01T06:36:11;3;3;
49708;PMS5003;35601;55.902;13.606;2023-04-01T06:38:36;3;3;
49708;PMS5003;35601;55.902;13.606;2023-04-01T06:41:02;3;3;
49708;PMS5003;35601;55.902;13.606;2023-04-01T06:43:25;5;5;
49708;PMS5003;35601;55.902;13.606;2023-04-01T06:45:49;4;3;
49708;PMS5003;35601;55.902;13.606;2023-04-01T06:48:19;4;2;
49708;PMS5003;35601;55.902;13.606;2023-04-01T06:50:40;2;2;
49708;PMS5003;35601;55.902;13.606;2023-04-01T06:53:05;3;3;
49708;PMS5003;35601;55.902;13.606;2023-04-01T06:55:30;3;3;
49708;PMS5003;35601;55.902;13.606;2023-04-01T06:57:55;2;2;
49708;PMS5003;35601;55.902;13.606;2023-04-01T07:00:22;3;3;
49708;PMS5003;35601;55.902;13.606;2023-04-01T07:02:47;4;3;
49708;PMS5003;35601;55.902;13.606;2023-04-01T07:05:11;4;2;
49708;PMS5003;35601;55.902;13.606;2023-04-01T07:07:38;1;1;
49708;PMS5003;35601;55.902;13.606;2023-04-01T07:10:02;4;3;
49708;PMS5003;35601;55.902;13.606;2023-04-01T07:12:29;3;3;
49708;PMS5003;35601;55.902;13.606;2023-04-01T07:14:52;2;2;
49708;PMS5003;35601;55.902;13.606;2023-04-01T07:17:19;2;2;
49708;PMS5003;35601;55.902;13.606;2023-04-01T07:19:45;4;3;
49708;PMS5003;35601;55.902;13.606;2023-04-01T07:22:14;2;2;
49708;PMS5003;35601;55.902;13.606;2023-04-01T07:24:34;4;3;
49708;PMS5003;35601;55.902;13.606;2023-04-01T07:27:01;4;1;
49708;PMS5003;35601;55.902;13.606;2023-04-01T07:29:25;2;1;
49708;PMS5003;35601;55.902;13.606;2023-04-01T07:31:56;2;2;
49708;PMS5003;35601;55.902;13.606;2023-04-01T07:34:17;2;2;
49708;PMS5003;35601;55.902;13.606;2023-04-01T07:36:42;4;2;
49708;PMS5003;35601;55.902;13.606;2023-04-01T07:39:11;3;3;
49708;PMS5003;35601;55.902;13.606;2023-04-01T07:41:34;2;1;
49708;PMS5003;35601;55.902;13.606;2023-04-01T07:44:01;4;4;
49708;PMS5003;35601;55.902;13.606;2023-04-01T07:46:28;2;2;
49708;PMS5003;35601;55.902;13.606;2023-04-01T07:48:50;2;2;
49708;PMS5003;35601;55.902;13.606;2023-04-01T07:51:15;3;3;
49708;PMS5003;35601;55.902;13.606;2023-04-01T07:53:41;2;2;
49708;PMS5003;35601;55.902;13.606;2023-04-01T07:56:06;4;2;
49708;PMS5003;35601;55.902;13.606;2023-04-01T07:58:31;3;2;
49708;PMS5003;35601;55.902;13.606;2023-04-01T08:00:56;2;2;
49708;PMS5003;35601;55.902;13.606;2023-04-01T08:03:26;2;2;
49708;PMS5003;35601;55.902;13.606;2023-04-01T08:05:47;3;3;
49708;PMS5003;35601;55.902;13.606;2023-04-01T08:08:13;2;2;
49708;PMS5003;35601;55.902;13.606;2023-04-01T08:10:39;2;2;
49708;PMS5003;35601;55.902;13.606;2023-04-01T08:13:03;2;2;
49708;PMS5003;35601;55.902;13.606;2023-04-01T08:15:27;2;2;
49708;PMS5003;35601;55.902;13.606;2023-04-01T08:17:58;1;1;
49708;PMS5003;35601;55.902;13.606;2023-04-01T08:20:23;2;2;
49708;PMS5003;35601;55.902;13.606;2023-04-01T08:22:45;4;2;
49708;PMS5003;35601;55.902;13.606;2023-04-01T08:25:13;1;1;
49708;PMS5003;35601;55.902;13.606;2023-04-01T08:27:34;2;2;
49708;PMS5003;35601;55.902;13.606;2023-04-01T08:30:01;2;2;
49708;PMS5003;35601;55.902;13.606;2023-04-01T08:32:25;3;3;
49708;PMS5003;35601;55.902;13.606;2023-04-01T08:34:54;3;2;
49708;PMS5003;35601;55.902;13.606;2023-04-01T08:37:17;3;3;
49708;PMS5003;35601;55.902;13.606;2023-04-01T08:39:41;3;2;
49708;PMS5003;35601;55.902;13.606;2023-04-01T08:44:36;3;3;
49708;PMS5003;35601;55.902;13.606;2023-04-01T08:47:03;2;2;
49708;PMS5003;35601;55.902;13.606;2023-04-01T08:49:27;2;2;
49708;PMS5003;35601;55.902;13.606;2023-04-01T08:51:51;2;2;
49708;PMS5003;35601;55.902;13.606;2023-04-01T08:54:17;1;1;
49708;PMS5003;35601;55.902;13.606;2023-04-01T08:56:39;1;1;
49708;PMS5003;35601;55.902;13.606;2023-04-01T08:59:09;3;2;
49708;PMS5003;35601;55.902;13.606;2023-04-01T09:01:36;4;4;
49708;PMS5003;35601;55.902;13.606;2023-04-01T09:06:25;1;1;
49708;PMS5003;35601;55.902;13.606;2023-04-01T09:08:51;4;2;
49708;PMS5003;35601;55.902;13.606;2023-04-01T09:11:12;4;1;
49708;PMS5003;35601;55.902;13.606;2023-04-01T09:13:46;2;2;
49708;PMS5003;35601;55.902;13.606;2023-04-01T09:25:46;2;1;
49708;PMS5003;35601;55.902;13.606;2023-04-01T09:28:09;2;2;
49708;PMS5003;35601;55.902;13.606;2023-04-01T09:30:38;1;1;
49708;PMS5003;35601;55.902;13.606;2023-04-01T09:35:24;2;2;
49708;PMS5003;35601;55.902;13.606;2023-04-01T09:37:52;1;1;
49708;PMS5003;35601;55.902;13.606;2023-04-01T09:40:15;3;2;
49708;PMS5003;35601;55.902;13.606;2023-04-01T09:42:43;2;2;
49708;PMS5003;35601;55.902;13.606;2023-04-01T09:45:05;2;2;
49708;PMS5003;35601;55.902;13.606;2023-04-01T09:47:37;1;1;
49708;PMS5003;35601;55.902;13.606;2023-04-01T09:50:00;1;1;
49708;PMS5003;35601;55.902;13.606;2023-04-01T09:52:25;1;1;
49708;PMS5003;35601;55.902;13.606;2023-04-01T09:54:51;1;1;
49708;PMS5003;35601;55.902;13.606;2023-04-01T09:57:18;2;2;
49708;PMS5003;35601;55.902;13.606;2023-04-01T10:02:08;1;1;
49708;PMS5003;35601;55.902;13.606;2023-04-01T10:16:37;1;1;
49708;PMS5003;35601;55.902;13.606;2023-04-01T10:19:03;2;2;
49708;PMS5003;35601;55.902;13.606;2023-04-01T10:21:28;2;2;
49708;PMS5003;35601;55.902;13.606;2023-04-01T10:23:54;4;2;
49708;PMS5003;35601;55.902;13.606;2023-04-01T10:31:11;3;3;
49708;PMS5003;35601;55.902;13.606;2023-04-01T10:52:56;0;0;
49708;PMS5003;35601;55.902;13.606;2023-04-01T10:55:20;2;2;
49708;PMS5003;35601;55.902;13.606;2023-04-01T10:57:48;2;0;
49708;PMS5003;35601;55.902;13.606;2023-04-01T11:00:13;1;1;
49708;PMS5003;35601;55.902;13.606;2023-04-01T11:12:19;0;0;
49708;PMS5003;35601;55.902;13.606;2023-04-01T11:17:09;0;0;
49708;PMS5003;35601;55.902;13.606;2023-04-01T11:24:21;1;1;
49708;PMS5003;35601;55.902;13.606;2023-04-01T11:26:50;3;3;
49708;PMS5003;35601;55.902;13.606;2023-04-01T11:31:37;3;1;
49708;PMS5003;35601;55.902;13.606;2023-04-01T11:34:04;0;0;
49708;PMS5003;35601;55.902;13.606;2023-04-01T11:36:30;2;2;
49708;PMS5003;35601;55.902;13.606;2023-04-01T11:38:57;2;2;
49708;PMS5003;35601;55.902;13.606;2023-04-01T11:41:20;1;1;
49708;PMS5003;35601;55.902;13.606;2023-04-01T11:43:43;0;0;
49708;PMS5003;35601;55.902;13.606;2023-04-01T11:46:10;1;1;
49708;PMS5003;35601;55.902;13.606;2023-04-01T11:48:38;1;1;
49708;PMS5003;35601;55.902;13.606;2023-04-01T11:51:03;2;1;
49708;PMS5003;35601;55.902;13.606;2023-04-01T11:53:25;1;1;
49708;PMS5003;35601;55.902;13.606;2023-04-01T11:55:53;3;1;
49708;PMS5003;35601;55.902;13.606;2023-04-01T11:58:23;0;0;
49708;PMS5003;35601;55.902;13.606;2023-04-01T12:00:44;1;1;
49708;PMS5003;35601;55.902;13.606;2023-04-01T12:03:10;0;0;
49708;PMS5003;35601;55.902;13.606;2023-04-01T12:05:34;0;0;
49708;PMS5003;35601;55.902;13.606;2023-04-01T12:08:00;4;4;
49708;PMS5003;35601;55.902;13.606;2023-04-01T12:10:21;0;0;
49708;PMS5003;35601;55.902;13.606;2023-04-01T12:12:48;0;0;
49708;PMS5003;35601;55.902;13.606;2023-04-01T12:15:16;1;1;
49708;PMS5003;35601;55.902;13.606;2023-04-01T12:17:37;0;0;
49708;PMS5003;35601;55.902;13.606;2023-04-01T12:20:04;1;1;
49708;PMS5003;35601;55.902;13.606;2023-04-01T12:22:30;0;0;
49708;PMS5003;35601;55.902;13.606;2023-04-01T12:24:53;3;3;
49708;PMS5003;35601;55.902;13.606;2023-04-01T12:27:20;0;0;
49708;PMS5003;35601;55.902;13.606;2023-04-01T12:29:49;0;0;
49708;PMS5003;35601;55.902;13.606;2023-04-01T12:32:09;1;1;
49708;PMS5003;35601;55.902;13.606;2023-04-01T12:34:38;0;0;
49708;PMS5003;35601;55.902;13.606;2023-04-01T12:37:00;3;2;
49708;PMS5003;35601;55.902;13.606;2023-04-01T12:39:31;1;1;
49708;PMS5003;35601;55.902;13.606;2023-04-01T12:41:49;0;0;
49708;PMS5003;35601;55.902;13.606;2023-04-01T12:44:19;0;0;
49708;PMS5003;35601;55.902;13.606;2023-04-01T12:46:45;5;5;
49708;PMS5003;35601;55.902;13.606;2023-04-01T12:51:34;1;0;
49708;PMS5003;35601;55.902;13.606;2023-04-01T12:56:22;0;0;
49708;PMS5003;35601;55.902;13.606;2023-04-01T13:03:41;2;1;
49708;PMS5003;35601;55.902;13.606;2023-04-01T13:08:30;1;1;
49708;PMS5003;35601;55.902;13.606;2023-04-01T13:13:24;2;2;
49708;PMS5003;35601;55.902;13.606;2023-04-01T13:15:42;1;1;
49708;PMS5003;35601;55.902;13.606;2023-04-01T13:18:12;2;2;
49708;PMS5003;35601;55.902;13.606;2023-04-01T13:20:36;1;1;
49708;PMS5003;35601;55.902;13.606;2023-04-01T13:23:03;2;2;
49708;PMS5003;35601;55.902;13.606;2023-04-01T13:25:24;2;2;
49708;PMS5003;35601;55.902;13.606;2023-04-01T13:27:49;1;1;
49708;PMS5003;35601;55.902;13.606;2023-04-01T13:30:19;3;3;
49708;PMS5003;35601;55.902;13.606;2023-04-01T13:32:40;2;0;
49708;PMS5003;35601;55.902;13.606;2023-04-01T13:37:35;1;1;
49708;PMS5003;35601;55.902;13.606;2023-04-01T13:39:58;1;1;
49708;PMS5003;35601;55.902;13.606;2023-04-01T13:42:22;2;2;
49708;PMS5003;35601;55.902;13.606;2023-04-01T13:44:46;3;3;
49708;PMS5003;35601;55.902;13.606;2023-04-01T13:47:13;3;1;
49708;PMS5003;35601;55.902;13.606;2023-04-01T13:49:41;0;0;
49708;PMS5003;35601;55.902;13.606;2023-04-01T13:52:05;4;2;
49708;PMS5003;35601;55.902;13.606;2023-04-01T13:54:30;2;2;
49708;PMS5003;35601;55.902;13.606;2023-04-01T13:56:56;0;0;
49708;PMS5003;35601;55.902;13.606;2023-04-01T13:59:22;2;1;
49708;PMS5003;35601;55.902;13.606;2023-04-01T14:01:42;1;1;
49708;PMS5003;35601;55.902;13.606;2023-04-01T14:06:35;0;0;
49708;PMS5003;35601;55.902;13.606;2023-04-01T14:11:24;1;1;
49708;PMS5003;35601;55.902;13.606;2023-04-01T14:13:52;3;1;
49708;PMS5003;35601;55.902;13.606;2023-04-01T14:16:18;1;1;
49708;PMS5003;35601;55.902;13.606;2023-04-01T14:18:45;1;1;
49708;PMS5003;35601;55.902;13.606;2023-04-01T14:25:59;1;1;
49708;PMS5003;35601;55.902;13.606;2023-04-01T14:28:23;3;2;
49708;PMS5003;35601;55.902;13.606;2023-04-01T14:30:48;2;2;
49708;PMS5003;35601;55.902;13.606;2023-04-01T14:33:15;3;2;
49708;PMS5003;35601;55.902;13.606;2023-04-01T14:35:37;2;2;
49708;PMS5003;35601;55.902;13.606;2023-04-01T14:38:11;0;0;
49708;PMS5003;35601;55.902;13.606;2023-04-01T14:40:26;0;0;
49708;PMS5003;35601;55.902;13.606;2023-04-01T14:45:22;1;1;
49708;PMS5003;35601;55.902;13.606;2023-04-01T14:47:43;1;1;
49708;PMS5003;35601;55.902;13.606;2023-04-01T14:50:07;0;0;
49708;PMS5003;35601;55.902;13.606;2023-04-01T14:52:32;2;0;
49708;PMS5003;35601;55.902;13.606;2023-04-01T14:54:56;0;0;
49708;PMS5003;35601;55.902;13.606;2023-04-01T14:57:23;3;1;
49708;PMS5003;35601;55.902;13.606;2023-04-01T14:59:48;2;2;
49708;PMS5003;35601;55.902;13.606;2023-04-01T15:02:18;2;1;
49708;PMS5003;35601;55.902;13.606;2023-04-01T15:07:08;0;0;
49708;PMS5003;35601;55.902;13.606;2023-04-01T15:09:29;2;2;
49708;PMS5003;35601;55.902;13.606;2023-04-01T15:11:56;1;1;
49708;PMS5003;35601;55.902;13.606;2023-04-01T15:14:23;2;2;
49708;PMS5003;35601;55.902;13.606;2023-04-01T15:16:46;1;1;
49708;PMS5003;35601;55.902;13.606;2023-04-01T15:19:14;2;2;
49708;PMS5003;35601;55.902;13.606;2023-04-01T15:21:41;2;2;
49708;PMS5003;35601;55.902;13.606;2023-04-01T15:24:03;2;2;
49708;PMS5003;35601;55.902;13.606;2023-04-01T15:26:35;2;1;
49708;PMS5003;35601;55.902;13.606;2023-04-01T15:31:16;3;3;
49708;PMS5003;35601;55.902;13.606;2023-04-01T15:33:48;1;1;
49708;PMS5003;35601;55.902;13.606;2023-04-01T15:36:09;4;2;
49708;PMS5003;35601;55.902;13.606;2023-04-01T15:38:33;5;3;
49708;PMS5003;35601;55.902;13.606;2023-04-01T15:40:58;2;2;
49708;PMS5003;35601;55.902;13.606;2023-04-01T15:43:27;3;3;
49708;PMS5003;35601;55.902;13.606;2023-04-01T15:45:51;2;2;
49708;PMS5003;35601;55.902;13.606;2023-04-01T15:48:18;5;3;
49708;PMS5003;35601;55.902;13.606;2023-04-01T15:50:48;5;2;
49708;PMS5003;35601;55.902;13.606;2023-04-01T15:53:07;1;1;
49708;PMS5003;35601;55.902;13.606;2023-04-01T15:55:31;3;2;
49708;PMS5003;35601;55.902;13.606;2023-04-01T16:00:21;3;3;
49708;PMS5003;35601;55.902;13.606;2023-04-01T16:02:46;4;3;
49708;PMS5003;35601;55.902;13.606;2023-04-01T16:05:16;3;2;
49708;PMS5003;35601;55.902;13.606;2023-04-01T16:07:41;2;2;
49708;PMS5003;35601;55.902;13.606;2023-04-01T16:10:06;4;2;
49708;PMS5003;35601;55.902;13.606;2023-04-01T16:12:31;1;1;
49708;PMS5003;35601;55.902;13.606;2023-04-01T16:14:55;0;0;
49708;PMS5003;35601;55.902;13.606;2023-04-01T16:17:22;2;2;
49708;PMS5003;35601;55.902;13.606;2023-04-01T16:19:47;1;1;
49708;PMS5003;35601;55.902;13.606;2023-04-01T16:22:11;3;2;
49708;PMS5003;35601;55.902;13.606;2023-04-01T16:24:33;2;2;
49708;PMS5003;35601;55.902;13.606;2023-04-01T16:27:00;2;2;
49708;PMS5003;35601;55.902;13.606;2023-04-01T16:29:27;2;2;
49708;PMS5003;35601;55.902;13.606;2023-04-01T16:31:48;1;1;
49708;PMS5003;35601;55.902;13.606;2023-04-01T16:34:15;2;1;
49708;PMS5003;35601;55.902;13.606;2023-04-01T16:36:41;4;1;
49708;PMS5003;35601;55.902;13.606;2023-04-01T16:39:15;1;0;
49708;PMS5003;35601;55.902;13.606;2023-04-01T16:41:29;1;1;
49708;PMS5003;35601;55.902;13.606;2023-04-01T16:43:56;1;0;
49708;PMS5003;35601;55.902;13.606;2023-04-01T16:46:26;1;1;
49708;PMS5003;35601;55.902;13.606;2023-04-01T16:48:52;2;2;
49708;PMS5003;35601;55.902;13.606;2023-04-01T16:51:11;1;1;
49708;PMS5003;35601;55.902;13.606;2023-04-01T16:53:37;1;1;
49708;PMS5003;35601;55.902;13.606;2023-04-01T16:56:07;1;1;
49708;PMS5003;35601;55.902;13.606;2023-04-01T16:58:26;0;0;
49708;PMS5003;35601;55.902;13.606;2023-04-01T17:00:53;3;2;
49708;PMS5003;35601;55.902;13.606;2023-04-01T17:03:17;1;1;
49708;PMS5003;35601;55.902;13.606;2023-04-01T17:08:08;2;2;
49708;PMS5003;35601;55.902;13.606;2023-04-01T17:10:38;2;1;
49708;PMS5003;35601;55.902;13.606;2023-04-01T17:13:05;4;2;
49708;PMS5003;35601;55.902;13.606;2023-04-01T17:15:26;1;1;
49708;PMS5003;35601;55.902;13.606;2023-04-01T17:17:51;3;2;
49708;PMS5003;35601;55.902;13.606;2023-04-01T17:20:19;1;1;
49708;PMS5003;35601;55.902;13.606;2023-04-01T17:22:40;1;1;
49708;PMS5003;35601;55.902;13.606;2023-04-01T17:25:09;0;0;
49708;PMS5003;35601;55.902;13.606;2023-04-01T17:27:35;0;0;
49708;PMS5003;35601;55.902;13.606;2023-04-01T17:30:02;1;1;
49708;PMS5003;35601;55.902;13.606;2023-04-01T17:32:21;0;0;
49708;PMS5003;35601;55.902;13.606;2023-04-01T17:34:48;1;1;
49708;PMS5003;35601;55.902;13.606;2023-04-01T17:37:19;1;1;
49708;PMS5003;35601;55.902;13.606;2023-04-01T17:39:42;2;1;
49708;PMS5003;35601;55.902;13.606;2023-04-01T17:42:04;1;1;
49708;PMS5003;35601;55.902;13.606;2023-04-01T17:44:32;1;1;
49708;PMS5003;35601;55.902;13.606;2023-04-01T17:47:01;1;1;
49708;PMS5003;35601;55.902;13.606;2023-04-01T17:49:21;3;2;
49708;PMS5003;35601;55.902;13.606;2023-04-01T17:51:46;1;1;
49708;PMS5003;35601;55.902;13.606;2023-04-01T17:54:15;3;1;
49708;PMS5003;35601;55.902;13.606;2023-04-01T17:56:39;2;2;
49708;PMS5003;35601;55.902;13.606;2023-04-01T17:58:59;5;2;
49708;PMS5003;35601;55.902;13.606;2023-04-01T18:01:31;1;1;
49708;PMS5003;35601;55.902;13.606;2023-04-01T18:03:54;3;2;
49708;PMS5003;35601;55.902;13.606;2023-04-01T18:06:16;1;1;
49708;PMS5003;35601;55.902;13.606;2023-04-01T18:08:45;2;1;
49708;PMS5003;35601;55.902;13.606;2023-04-01T18:11:11;2;2;
49708;PMS5003;35601;55.902;13.606;2023-04-01T18:13:37;3;3;